createdAt,value
2017-04-12T00:00:31.951Z,11.26
2017-04-12T00:01:32.549Z,11.35
2017-04-12T00:02:33.147Z,11.32
2017-04-12T00:03:33.745Z,11.35
2017-04-12T00:04:34.383Z,11.32
2017-04-12T00:05:34.940Z,11.29
2017-04-12T00:06:35.553Z,11.32
2017-04-12T00:07:36.152Z,11.35
2017-04-12T00:08:36.747Z,11.33
2017-04-12T00:09:37.348Z,11.30
2017-04-12T00:10:37.948Z,11.26
2017-04-12T00:11:38.548Z,11.27
2017-04-12T00:12:39.143Z,11.25
2017-04-12T00:13:39.761Z,11.17
2017-04-12T00:14:40.363Z,11.17
2017-04-12T00:15:40.959Z,11.08
2017-04-12T00:16:41.557Z,11.12
2017-04-12T00:17:42.169Z,10.99
2017-04-12T00:18:42.767Z,11.05
2017-04-12T00:19:43.371Z,11.12
2017-04-12T00:20:43.983Z,11.04
2017-04-12T00:21:44.587Z,11.05
2017-04-12T00:22:45.181Z,11.08
2017-04-12T00:23:45.778Z,11.11
2017-04-12T00:24:46.377Z,11.14
2017-04-12T00:25:46.989Z,11.10
2017-04-12T00:26:47.587Z,11.17
2017-04-12T00:27:48.206Z,11.18
2017-04-12T00:28:48.805Z,11.25
2017-04-12T00:29:49.398Z,11.18
2017-04-12T00:30:49.994Z,11.17
2017-04-12T00:31:50.603Z,11.12
2017-04-12T00:32:51.192Z,11.07
2017-04-12T00:33:51.789Z,11.10
2017-04-12T00:34:52.394Z,11.02
2017-04-12T00:35:52.989Z,10.99
2017-04-12T00:36:53.594Z,11.00
2017-04-12T00:37:54.210Z,10.87
2017-04-12T00:38:54.804Z,10.93
2017-04-12T00:39:55.400Z,10.92
2017-04-12T00:40:56.002Z,10.84
2017-04-12T00:41:56.621Z,10.86
2017-04-12T00:42:57.216Z,10.86
2017-04-12T00:43:57.829Z,10.82
2017-04-12T00:44:58.425Z,10.76
2017-04-12T00:45:59.023Z,10.72
2017-04-12T00:46:59.634Z,10.61
2017-04-12T00:48:00.238Z,10.64
2017-04-12T00:49:00.839Z,10.64
2017-04-12T00:50:01.453Z,10.67
2017-04-12T00:51:02.054Z,10.60
2017-04-12T00:52:02.654Z,10.61
2017-04-12T00:53:03.247Z,10.63
2017-04-12T00:54:03.849Z,10.64
2017-04-12T00:55:04.462Z,10.60
2017-04-12T00:56:05.059Z,10.69
2017-04-12T00:57:05.658Z,10.69
2017-04-12T00:58:06.257Z,10.68
2017-04-12T00:59:06.853Z,10.68
2017-04-12T01:00:07.448Z,10.63
2017-04-12T01:01:08.046Z,10.68
2017-04-12T01:02:08.648Z,10.61
2017-04-12T01:03:09.244Z,10.64
2017-04-12T01:04:09.841Z,10.53
2017-04-12T01:05:10.438Z,10.56
2017-04-12T01:06:11.034Z,10.53
2017-04-12T01:07:11.650Z,10.57
2017-04-12T01:08:12.244Z,10.57
2017-04-12T01:09:12.847Z,10.57
2017-04-12T01:10:13.447Z,10.56
2017-04-12T01:11:14.048Z,10.51
2017-04-12T01:12:14.640Z,10.54
2017-04-12T01:13:15.239Z,10.46
2017-04-12T01:14:15.835Z,10.57
2017-04-12T01:15:16.432Z,10.59
2017-04-12T01:16:17.029Z,10.56
2017-04-12T01:17:17.624Z,10.54
2017-04-12T01:18:18.223Z,10.54
2017-04-12T01:19:18.818Z,10.54
2017-04-12T01:20:19.416Z,10.59
2017-04-12T01:21:20.013Z,10.51
2017-04-12T01:22:20.616Z,10.54
2017-04-12T01:23:21.209Z,10.53
2017-04-12T01:24:21.809Z,10.54
2017-04-12T01:25:22.411Z,10.51
2017-04-12T01:26:23.003Z,10.49
2017-04-12T01:27:23.600Z,10.59
2017-04-12T01:28:24.198Z,10.57
2017-04-12T01:29:24.795Z,10.60
2017-04-12T01:30:25.391Z,10.56
2017-04-12T01:31:26.004Z,10.67
2017-04-12T01:32:26.599Z,10.61
2017-04-12T01:33:27.202Z,10.63
2017-04-12T01:34:27.817Z,10.56
2017-04-12T01:35:28.413Z,10.60
2017-04-12T01:36:29.008Z,10.56
2017-04-12T01:37:29.606Z,10.53
2017-04-12T01:38:30.204Z,10.57
2017-04-12T01:39:30.800Z,10.54
2017-04-12T01:40:31.396Z,10.60
2017-04-12T01:41:31.992Z,10.57
2017-04-12T01:42:32.589Z,10.44
2017-04-12T01:43:33.185Z,10.59
2017-04-12T01:44:33.783Z,10.57
2017-04-12T01:45:34.393Z,10.53
2017-04-12T01:46:34.997Z,10.51
2017-04-12T01:47:35.590Z,10.60
2017-04-12T01:48:36.187Z,10.48
2017-04-12T01:49:36.789Z,10.44
2017-04-12T01:50:37.391Z,10.30
2017-04-12T01:51:37.983Z,10.26
2017-04-12T01:52:38.590Z,10.17
2017-04-12T01:53:39.180Z,10.23
2017-04-12T01:54:39.783Z,10.22
2017-04-12T01:55:40.378Z,10.17
2017-04-12T01:56:40.977Z,10.15
2017-04-12T01:57:41.572Z,10.09
2017-04-12T01:58:42.167Z,9.98
2017-04-12T01:59:42.765Z,10.02
2017-04-12T02:00:43.360Z,9.95
2017-04-12T02:01:43.957Z,9.92
2017-04-12T02:02:44.567Z,9.94
2017-04-12T02:03:45.168Z,9.91
2017-04-12T02:04:45.760Z,9.91
2017-04-12T02:05:46.357Z,9.77
2017-04-12T02:06:46.951Z,9.86
2017-04-12T02:07:47.552Z,9.82
2017-04-12T02:08:48.152Z,9.86
2017-04-12T02:09:48.747Z,9.80
2017-04-12T02:10:49.339Z,9.73
2017-04-12T02:11:49.936Z,9.76
2017-04-12T02:12:50.531Z,9.77
2017-04-12T02:13:51.132Z,9.74
2017-04-12T02:14:51.744Z,9.76
2017-04-12T02:15:52.344Z,9.74
2017-04-12T02:16:52.938Z,9.74
2017-04-12T02:17:53.533Z,9.73
2017-04-12T02:18:54.134Z,9.77
2017-04-12T02:19:54.734Z,9.74
2017-04-12T02:20:55.329Z,9.82
2017-04-12T02:21:55.938Z,9.76
2017-04-12T02:22:56.542Z,9.79
2017-04-12T02:23:57.137Z,9.82
2017-04-12T02:24:57.736Z,9.86
2017-04-12T02:25:58.329Z,9.82
2017-04-12T02:26:58.941Z,9.92
2017-04-12T02:27:59.536Z,9.98
2017-04-12T02:29:00.142Z,9.92
2017-04-12T02:30:00.729Z,9.83
2017-04-12T02:31:01.339Z,9.91
2017-04-12T02:32:01.936Z,9.98
2017-04-12T02:33:02.535Z,9.92
2017-04-12T02:34:03.129Z,9.92
2017-04-12T02:35:03.724Z,9.94
2017-04-12T02:36:04.318Z,9.95
2017-04-12T02:37:04.914Z,9.94
2017-04-12T02:38:05.508Z,9.98
2017-04-12T02:39:06.125Z,9.98
2017-04-12T02:40:06.724Z,10.10
2017-04-12T02:41:07.323Z,10.10
2017-04-12T02:42:07.918Z,10.02
2017-04-12T02:43:08.513Z,10.05
2017-04-12T02:44:09.109Z,9.98
2017-04-12T02:45:09.711Z,10.07
2017-04-12T02:46:10.305Z,10.07
2017-04-12T02:47:10.901Z,10.07
2017-04-12T02:48:11.513Z,10.05
2017-04-12T02:49:12.109Z,9.95
2017-04-12T02:50:12.706Z,10.10
2017-04-12T02:51:13.317Z,10.04
2017-04-12T02:52:13.920Z,10.02
2017-04-12T02:53:14.512Z,9.94
2017-04-12T02:54:15.111Z,9.92
2017-04-12T02:55:15.706Z,9.94
2017-04-12T02:56:16.300Z,9.87
2017-04-12T02:57:16.895Z,9.92
2017-04-12T02:58:17.492Z,9.94
2017-04-12T02:59:18.087Z,9.94
2017-04-12T03:00:18.686Z,9.91
2017-04-12T03:01:19.279Z,9.83
2017-04-12T03:02:19.880Z,9.87
2017-04-12T03:03:20.471Z,9.95
2017-04-12T03:04:21.073Z,9.92
2017-04-12T03:05:21.670Z,9.92
2017-04-12T03:06:22.261Z,9.95
2017-04-12T03:07:22.862Z,9.95
2017-04-12T03:08:23.461Z,9.94
2017-04-12T03:09:24.053Z,9.91
2017-04-12T03:10:24.649Z,9.91
2017-04-12T03:11:25.244Z,9.87
2017-04-12T03:12:25.839Z,9.92
2017-04-12T03:13:26.435Z,9.95
2017-04-12T03:14:27.029Z,9.87
2017-04-12T03:15:27.625Z,9.91
2017-04-12T03:16:28.237Z,9.87
2017-04-12T03:17:28.846Z,9.86
2017-04-12T03:18:29.441Z,9.89
2017-04-12T03:19:30.041Z,9.82
2017-04-12T03:20:30.635Z,9.89
2017-04-12T03:21:31.230Z,9.87
2017-04-12T03:22:31.831Z,9.89
2017-04-12T03:23:32.447Z,9.92
2017-04-12T03:24:33.039Z,9.84
2017-04-12T03:25:33.655Z,9.83
2017-04-12T03:26:34.249Z,9.74
2017-04-12T03:27:34.843Z,9.72
2017-04-12T03:28:35.437Z,9.73
2017-04-12T03:29:36.041Z,9.76
2017-04-12T03:30:36.637Z,9.79
2017-04-12T03:31:37.236Z,9.69
2017-04-12T03:32:37.832Z,9.79
2017-04-12T03:33:38.426Z,9.77
2017-04-12T03:34:39.025Z,9.73
2017-04-12T03:35:39.619Z,9.82
2017-04-12T03:36:40.220Z,9.80
2017-04-12T03:37:40.810Z,9.83
2017-04-12T03:38:41.421Z,9.69
2017-04-12T03:39:42.016Z,9.83
2017-04-12T03:40:42.618Z,9.76
2017-04-12T03:41:43.216Z,9.76
2017-04-12T03:42:43.807Z,9.82
2017-04-12T03:43:44.402Z,9.80
2017-04-12T03:44:44.998Z,9.73
2017-04-12T03:45:45.593Z,9.80
2017-04-12T03:46:46.193Z,9.80
2017-04-12T03:47:46.787Z,9.74
2017-04-12T03:48:47.398Z,9.76
2017-04-12T03:49:47.992Z,9.68
2017-04-12T03:50:48.588Z,9.76
2017-04-12T03:51:49.184Z,9.74
2017-04-12T03:52:49.779Z,9.73
2017-04-12T03:53:50.374Z,9.72
2017-04-12T03:54:50.969Z,9.76
2017-04-12T03:55:51.569Z,9.61
2017-04-12T03:56:52.167Z,9.58
2017-04-12T03:57:52.759Z,9.44
2017-04-12T03:58:53.368Z,9.47
2017-04-12T03:59:53.965Z,9.48
2017-04-12T04:00:54.560Z,9.43
2017-04-12T04:01:55.158Z,9.47
2017-04-12T04:02:55.758Z,9.50
2017-04-12T04:03:56.350Z,9.43
2017-04-12T04:04:56.946Z,9.43
2017-04-12T04:05:57.552Z,9.47
2017-04-12T04:06:58.145Z,9.54
2017-04-12T04:07:58.755Z,9.51
2017-04-12T04:08:59.353Z,9.51
2017-04-12T04:09:59.945Z,9.44
2017-04-12T04:11:00.542Z,9.46
2017-04-12T04:12:01.142Z,9.51
2017-04-12T04:13:01.736Z,9.44
2017-04-12T04:14:02.337Z,9.55
2017-04-12T04:15:02.934Z,9.59
2017-04-12T04:16:03.526Z,9.58
2017-04-12T04:17:04.136Z,9.48
2017-04-12T04:18:04.737Z,9.55
2017-04-12T04:19:05.329Z,9.56
2017-04-12T04:20:05.929Z,9.54
2017-04-12T04:21:06.521Z,9.61
2017-04-12T04:22:07.117Z,9.50
2017-04-12T04:23:07.712Z,9.55
2017-04-12T04:24:08.306Z,9.44
2017-04-12T04:25:08.901Z,9.41
2017-04-12T04:26:09.496Z,9.43
2017-04-12T04:27:10.109Z,9.39
2017-04-12T04:28:10.703Z,9.40
2017-04-12T04:29:11.299Z,9.28
2017-04-12T04:30:11.897Z,9.39
2017-04-12T04:31:12.496Z,9.43
2017-04-12T04:32:13.092Z,9.29
2017-04-12T04:33:13.688Z,9.22
2017-04-12T04:34:14.285Z,9.25
2017-04-12T04:35:14.880Z,9.22
2017-04-12T04:36:15.475Z,9.14
2017-04-12T04:37:16.072Z,9.13
2017-04-12T04:38:16.672Z,9.13
2017-04-12T04:39:17.265Z,9.13
2017-04-12T04:40:17.863Z,9.16
2017-04-12T04:41:18.463Z,9.23
2017-04-12T04:42:19.079Z,9.22
2017-04-12T04:43:19.690Z,9.22
2017-04-12T04:44:20.287Z,9.21
2017-04-12T04:45:20.900Z,9.26
2017-04-12T04:46:21.502Z,9.19
2017-04-12T04:47:22.116Z,9.25
2017-04-12T04:48:22.713Z,9.25
2017-04-12T04:49:23.311Z,9.28
2017-04-12T04:50:23.931Z,9.28
2017-04-12T04:51:24.524Z,9.25
2017-04-12T04:52:25.123Z,9.26
2017-04-12T04:53:25.721Z,9.31
2017-04-12T04:54:26.328Z,9.25
2017-04-12T04:55:26.944Z,9.23
2017-04-12T04:56:27.538Z,9.19
2017-04-12T04:57:28.136Z,9.26
2017-04-12T04:58:28.735Z,9.21
2017-04-12T04:59:29.333Z,9.31
2017-04-12T05:00:29.930Z,9.25
2017-04-12T05:01:30.527Z,9.25
2017-04-12T05:02:31.127Z,9.26
2017-04-12T05:03:31.750Z,9.21
2017-04-12T05:04:32.343Z,9.21
2017-04-12T05:05:32.950Z,9.26
2017-04-12T05:06:33.540Z,9.28
2017-04-12T05:07:34.140Z,9.21
2017-04-12T05:08:34.736Z,9.31
2017-04-12T05:09:35.349Z,9.31
2017-04-12T05:10:35.947Z,9.29
2017-04-12T05:11:36.550Z,9.37
2017-04-12T05:12:37.147Z,9.34
2017-04-12T05:13:37.748Z,9.39
2017-04-12T05:14:38.363Z,9.41
2017-04-12T05:15:38.977Z,9.47
2017-04-12T05:16:39.575Z,9.56
2017-04-12T05:17:40.175Z,9.64
2017-04-12T05:18:40.774Z,9.62
2017-04-12T05:19:41.374Z,9.62
2017-04-12T05:20:41.978Z,9.74
2017-04-12T05:21:42.593Z,9.72
2017-04-12T05:22:43.193Z,9.76
2017-04-12T05:23:43.793Z,9.73
2017-04-12T05:24:44.394Z,9.79
2017-04-12T05:25:44.992Z,9.94
2017-04-12T05:26:45.593Z,9.91
2017-04-12T05:27:46.195Z,10.02
2017-04-12T05:28:46.798Z,10.22
2017-04-12T05:29:47.400Z,10.40
2017-04-12T05:30:48.002Z,10.67
2017-04-12T05:31:48.604Z,10.87
2017-04-12T05:32:49.212Z,11.25
2017-04-12T05:33:49.817Z,11.45
2017-04-12T05:34:50.425Z,11.75
2017-04-12T05:35:51.026Z,12.09
2017-04-12T05:36:51.636Z,12.40
2017-04-12T05:37:52.238Z,12.72
2017-04-12T05:38:52.840Z,12.98
2017-04-12T05:39:53.459Z,13.16
2017-04-12T05:40:54.063Z,13.53
2017-04-12T05:41:54.675Z,13.87
2017-04-12T05:42:55.283Z,14.05
2017-04-12T05:43:55.886Z,14.26
2017-04-12T05:44:56.493Z,14.45
2017-04-12T05:45:57.113Z,14.72
2017-04-12T05:46:57.722Z,14.97
2017-04-12T05:47:58.342Z,15.03
2017-04-12T05:48:58.951Z,15.18
2017-04-12T05:49:59.558Z,15.29
2017-04-12T05:51:00.166Z,15.43
2017-04-12T05:52:00.774Z,15.67
2017-04-12T05:53:01.383Z,15.83
2017-04-12T05:54:01.996Z,15.86
2017-04-12T05:55:02.602Z,16.04
2017-04-12T05:56:03.210Z,16.08
2017-04-12T05:57:03.819Z,16.21
2017-04-12T05:58:04.432Z,16.12
2017-04-12T05:59:05.038Z,16.31
2017-04-12T06:00:05.662Z,16.35
2017-04-12T06:01:06.271Z,16.38
2017-04-12T06:02:06.882Z,16.38
2017-04-12T06:03:07.493Z,16.51
2017-04-12T06:04:08.117Z,16.51
2017-04-12T06:05:08.732Z,16.57
2017-04-12T06:06:09.337Z,16.69
2017-04-12T06:07:09.954Z,16.74
2017-04-12T06:08:10.566Z,16.91
2017-04-12T06:09:11.180Z,16.91
2017-04-12T06:10:11.803Z,16.99
2017-04-12T06:11:12.445Z,17.08
2017-04-12T06:12:13.053Z,17.15
2017-04-12T06:13:13.668Z,17.31
2017-04-12T06:14:14.299Z,17.49
2017-04-12T06:15:14.911Z,17.63
2017-04-12T06:16:15.524Z,17.94
2017-04-12T06:17:16.132Z,18.07
2017-04-12T06:18:16.742Z,18.43
2017-04-12T06:19:17.360Z,18.63
2017-04-12T06:20:17.969Z,18.89
2017-04-12T06:21:18.587Z,19.14
2017-04-12T06:22:19.207Z,19.29
2017-04-12T06:23:19.814Z,19.48
2017-04-12T06:24:20.438Z,19.73
2017-04-12T06:25:21.054Z,19.85
2017-04-12T06:26:21.662Z,20.11
2017-04-12T06:27:22.291Z,20.31
2017-04-12T06:28:22.902Z,20.55
2017-04-12T06:29:23.536Z,20.74
2017-04-12T06:30:24.163Z,21.11
2017-04-12T06:31:24.784Z,21.15
2017-04-12T06:32:25.397Z,21.21
2017-04-12T06:33:26.016Z,21.36
2017-04-12T06:34:26.626Z,21.54
2017-04-12T06:35:27.261Z,21.55
2017-04-12T06:36:27.870Z,21.64
2017-04-12T06:37:28.484Z,21.77
2017-04-12T06:38:29.105Z,21.82
2017-04-12T06:39:29.717Z,21.92
2017-04-12T06:40:30.331Z,21.87
2017-04-12T06:41:30.953Z,22.02
2017-04-12T06:42:31.565Z,21.98
2017-04-12T06:43:32.187Z,22.17
2017-04-12T06:44:32.817Z,22.20
2017-04-12T06:45:33.434Z,22.39
2017-04-12T06:46:34.059Z,22.62
2017-04-12T06:47:34.669Z,22.75
2017-04-12T06:48:35.283Z,22.94
2017-04-12T06:49:35.899Z,23.15
2017-04-12T06:50:36.521Z,23.31
2017-04-12T06:51:37.139Z,23.46
2017-04-12T06:52:37.768Z,23.44
2017-04-12T06:53:38.385Z,23.58
2017-04-12T06:54:39.008Z,23.78
2017-04-12T06:55:39.624Z,23.88
2017-04-12T06:56:40.247Z,24.08
2017-04-12T06:57:40.863Z,24.08
2017-04-12T06:58:41.478Z,24.24
2017-04-12T06:59:42.095Z,24.36
2017-04-12T07:00:42.713Z,24.43
2017-04-12T07:01:43.330Z,24.35
2017-04-12T07:02:43.962Z,24.21
2017-04-12T07:03:44.579Z,24.28
2017-04-12T07:04:45.198Z,24.24
2017-04-12T07:05:45.817Z,24.28
2017-04-12T07:06:46.434Z,24.23
2017-04-12T07:07:47.068Z,24.32
2017-04-12T07:08:47.701Z,24.51
2017-04-12T07:09:48.321Z,24.81
2017-04-12T07:10:48.939Z,25.11
2017-04-12T07:11:49.557Z,25.35
2017-04-12T07:12:50.181Z,25.55
2017-04-12T07:13:50.798Z,25.81
2017-04-12T07:14:51.420Z,26.00
2017-04-12T07:15:52.038Z,26.19
2017-04-12T07:16:52.657Z,26.51
2017-04-12T07:17:53.277Z,26.60
2017-04-12T07:18:53.895Z,26.83
2017-04-12T07:19:54.520Z,26.95
2017-04-12T07:20:55.143Z,27.26
2017-04-12T07:21:55.781Z,27.27
2017-04-12T07:22:56.397Z,27.51
2017-04-12T07:23:57.023Z,27.74
2017-04-12T07:24:57.641Z,27.93
2017-04-12T07:25:58.276Z,28.05
2017-04-12T07:26:58.902Z,28.11
2017-04-12T07:27:59.538Z,28.23
2017-04-12T07:29:00.158Z,28.26
2017-04-12T07:30:00.778Z,28.37
2017-04-12T07:31:01.398Z,28.52
2017-04-12T07:32:02.035Z,28.57
2017-04-12T07:33:02.658Z,28.64
2017-04-12T07:34:03.294Z,28.54
2017-04-12T07:35:03.915Z,28.64
2017-04-12T07:36:04.540Z,28.57
2017-04-12T07:37:05.163Z,28.52
2017-04-12T07:38:05.804Z,28.62
2017-04-12T07:39:06.423Z,28.62
2017-04-12T07:40:07.044Z,28.74
2017-04-12T07:41:07.664Z,28.81
2017-04-12T07:42:08.292Z,28.94
2017-04-12T07:43:08.912Z,28.88
2017-04-12T07:44:09.542Z,28.91
2017-04-12T07:45:10.155Z,28.89
2017-04-12T07:46:10.797Z,28.98
2017-04-12T07:47:11.414Z,29.05
2017-04-12T07:48:12.035Z,29.08
2017-04-12T07:49:12.658Z,29.22
2017-04-12T07:50:13.279Z,29.31
2017-04-12T07:51:13.901Z,29.35
2017-04-12T07:52:14.533Z,29.56
2017-04-12T07:53:15.156Z,29.54
2017-04-12T07:54:15.772Z,29.79
2017-04-12T07:55:16.393Z,29.93
2017-04-12T07:56:17.021Z,29.94
2017-04-12T07:57:17.640Z,30.08
2017-04-12T07:58:18.261Z,30.12
2017-04-12T07:59:18.884Z,30.16
2017-04-12T08:00:19.523Z,30.23
2017-04-12T08:01:20.136Z,30.18
2017-04-12T08:02:20.757Z,30.18
2017-04-12T08:03:21.379Z,30.21
2017-04-12T08:04:22.002Z,30.23
2017-04-12T08:05:22.622Z,30.27
2017-04-12T08:06:23.260Z,30.43
2017-04-12T08:07:23.899Z,30.50
2017-04-12T08:08:24.520Z,30.65
2017-04-12T08:09:25.143Z,30.55
2017-04-12T08:10:25.765Z,30.73
2017-04-12T08:11:26.389Z,30.90
2017-04-12T08:12:27.013Z,31.12
2017-04-12T08:13:27.635Z,31.15
2017-04-12T08:14:28.260Z,31.36
2017-04-12T08:15:28.901Z,31.43
2017-04-12T08:16:29.521Z,31.59
2017-04-12T08:17:30.145Z,31.61
2017-04-12T08:18:30.775Z,31.73
2017-04-12T08:19:31.393Z,31.73
2017-04-12T08:20:32.018Z,31.65
2017-04-12T08:21:32.642Z,31.58
2017-04-12T08:22:33.265Z,31.59
2017-04-12T08:23:33.905Z,31.56
2017-04-12T08:24:34.548Z,31.58
2017-04-12T08:25:35.186Z,31.62
2017-04-12T08:26:35.811Z,31.61
2017-04-12T08:27:36.435Z,31.77
2017-04-12T08:28:37.060Z,31.80
2017-04-12T08:29:37.683Z,31.73
2017-04-12T08:30:38.312Z,31.78
2017-04-12T08:31:38.941Z,31.74
2017-04-12T08:32:39.561Z,31.77
2017-04-12T08:33:40.192Z,31.92
2017-04-12T08:34:40.812Z,31.99
2017-04-12T08:35:41.437Z,32.23
2017-04-12T08:36:42.062Z,32.41
2017-04-12T08:37:42.689Z,32.64
2017-04-12T08:38:43.312Z,32.65
2017-04-12T08:39:43.942Z,32.65
2017-04-12T08:40:44.570Z,32.78
2017-04-12T08:41:45.193Z,32.82
2017-04-12T08:42:45.833Z,32.63
2017-04-12T08:43:46.464Z,32.56
2017-04-12T08:44:47.087Z,32.65
2017-04-12T08:45:47.726Z,32.82
2017-04-12T08:46:48.355Z,33.01
2017-04-12T08:47:48.984Z,33.04
2017-04-12T08:48:49.606Z,33.00
2017-04-12T08:49:50.242Z,32.86
2017-04-12T08:50:50.885Z,32.68
2017-04-12T08:51:51.526Z,32.64
2017-04-12T08:52:52.150Z,32.65
2017-04-12T08:53:52.776Z,32.65
2017-04-12T08:54:53.398Z,32.75
2017-04-12T08:55:54.039Z,32.77
2017-04-12T08:56:54.663Z,32.67
2017-04-12T08:57:55.309Z,32.51
2017-04-12T08:58:55.930Z,32.38
2017-04-12T08:59:56.555Z,32.29
2017-04-12T09:00:57.180Z,32.27
2017-04-12T09:01:57.806Z,32.18
2017-04-12T09:02:58.433Z,31.97
2017-04-12T09:03:59.058Z,31.90
2017-04-12T09:04:59.686Z,31.99
2017-04-12T09:06:00.309Z,32.21
2017-04-12T09:07:00.955Z,32.43
2017-04-12T09:08:01.576Z,32.52
2017-04-12T09:09:02.200Z,32.71
2017-04-12T09:10:03.026Z,32.78
2017-04-12T09:11:03.650Z,32.96
2017-04-12T09:12:04.273Z,33.04
2017-04-12T09:13:04.904Z,33.11
2017-04-12T09:14:05.525Z,33.30
2017-04-12T09:15:06.150Z,33.42
2017-04-12T09:16:06.790Z,33.55
2017-04-12T09:17:07.417Z,33.76
2017-04-12T09:18:08.054Z,33.87
2017-04-12T09:19:08.678Z,33.98
2017-04-12T09:20:09.320Z,34.13
2017-04-12T09:21:09.946Z,34.05
2017-04-12T09:22:10.584Z,34.14
2017-04-12T09:23:11.229Z,34.24
2017-04-12T09:24:11.857Z,34.33
2017-04-12T09:25:12.479Z,34.45
2017-04-12T09:26:13.104Z,34.50
2017-04-12T09:27:13.730Z,34.52
2017-04-12T09:28:14.356Z,34.43
2017-04-12T09:29:14.983Z,34.45
2017-04-12T09:30:15.623Z,34.40
2017-04-12T09:31:16.249Z,34.42
2017-04-12T09:32:16.875Z,34.43
2017-04-12T09:33:17.501Z,34.45
2017-04-12T09:34:18.130Z,34.43
2017-04-12T09:35:18.752Z,34.47
2017-04-12T09:36:19.384Z,34.51
2017-04-12T09:37:20.005Z,34.50
2017-04-12T09:38:20.631Z,34.61
2017-04-12T09:39:21.270Z,34.57
2017-04-12T09:40:21.887Z,34.43
2017-04-12T09:41:22.511Z,34.13
2017-04-12T09:42:23.135Z,33.86
2017-04-12T09:43:23.767Z,33.62
2017-04-12T09:44:24.387Z,33.55
2017-04-12T09:45:25.013Z,33.49
2017-04-12T09:46:25.640Z,33.55
2017-04-12T09:47:26.264Z,33.42
2017-04-12T09:48:26.906Z,33.42
2017-04-12T09:49:27.535Z,33.43
2017-04-12T09:50:28.156Z,33.79
2017-04-12T09:51:28.781Z,33.89
2017-04-12T09:52:29.428Z,34.06
2017-04-12T09:53:30.073Z,34.13
2017-04-12T09:54:30.700Z,34.24
2017-04-12T09:55:31.330Z,34.36
2017-04-12T09:56:31.969Z,34.45
2017-04-12T09:57:32.599Z,34.52
2017-04-12T09:58:33.222Z,34.47
2017-04-12T09:59:33.849Z,34.40
2017-04-12T10:00:34.488Z,34.50
2017-04-12T10:01:35.115Z,34.43
2017-04-12T10:02:35.742Z,34.33
2017-04-12T10:03:36.370Z,34.32
2017-04-12T10:04:36.991Z,34.36
2017-04-12T10:05:37.618Z,34.45
2017-04-12T10:06:38.250Z,34.50
2017-04-12T10:07:38.871Z,34.50
2017-04-12T10:08:39.497Z,34.67
2017-04-12T10:09:40.124Z,34.81
2017-04-12T10:10:40.750Z,34.85
2017-04-12T10:11:41.374Z,35.11
2017-04-12T10:12:42.000Z,35.11
2017-04-12T10:13:42.629Z,35.15
2017-04-12T10:14:43.251Z,35.39
2017-04-12T10:15:43.877Z,35.39
2017-04-12T10:16:44.509Z,35.48
2017-04-12T10:17:45.130Z,35.45
2017-04-12T10:18:45.754Z,35.26
2017-04-12T10:19:46.396Z,34.96
2017-04-12T10:20:47.020Z,34.70
2017-04-12T10:21:47.649Z,34.40
2017-04-12T10:22:48.270Z,34.20
2017-04-12T10:23:48.909Z,34.11
2017-04-12T10:24:49.534Z,33.89
2017-04-12T10:25:50.159Z,33.47
2017-04-12T10:26:50.781Z,33.15
2017-04-12T10:27:51.410Z,32.73
2017-04-12T10:28:52.031Z,32.46
2017-04-12T10:29:52.653Z,32.16
2017-04-12T10:30:53.278Z,31.87
2017-04-12T10:31:53.917Z,31.42
2017-04-12T10:32:54.540Z,31.07
2017-04-12T10:33:55.162Z,30.65
2017-04-12T10:34:55.788Z,30.43
2017-04-12T10:35:56.407Z,30.12
2017-04-12T10:36:57.028Z,29.81
2017-04-12T10:37:57.650Z,29.61
2017-04-12T10:38:58.274Z,29.24
2017-04-12T10:39:58.900Z,29.10
2017-04-12T10:40:59.523Z,28.94
2017-04-12T10:42:00.139Z,28.62
2017-04-12T10:43:00.759Z,28.35
2017-04-12T10:44:01.377Z,28.08
2017-04-12T10:45:01.997Z,27.75
2017-04-12T10:46:02.616Z,27.51
2017-04-12T10:47:03.234Z,27.35
2017-04-12T10:48:03.851Z,27.08
2017-04-12T10:49:04.468Z,26.96
2017-04-12T10:50:05.086Z,26.70
2017-04-12T10:51:05.711Z,26.52
2017-04-12T10:52:06.323Z,26.28
2017-04-12T10:53:06.939Z,26.06
2017-04-12T10:54:07.555Z,25.98
2017-04-12T10:55:08.171Z,25.75
2017-04-12T10:56:08.790Z,25.41
2017-04-12T10:57:09.403Z,25.25
2017-04-12T10:58:10.032Z,24.99
2017-04-12T10:59:10.651Z,24.77
2017-04-12T11:00:11.286Z,24.51
2017-04-12T11:01:11.898Z,24.30
2017-04-12T11:02:12.520Z,24.05
2017-04-12T11:03:13.132Z,24.03
2017-04-12T11:04:13.751Z,23.86
2017-04-12T11:05:14.361Z,23.74
2017-04-12T11:06:14.975Z,23.63
2017-04-12T11:07:15.587Z,23.50
2017-04-12T11:08:16.202Z,23.46
2017-04-12T11:09:16.815Z,23.41
2017-04-12T11:10:17.428Z,23.27
2017-04-12T11:11:18.042Z,23.09
2017-04-12T11:12:18.658Z,23.03
2017-04-12T11:13:19.268Z,22.90
2017-04-12T11:14:19.895Z,22.81
2017-04-12T11:15:20.509Z,22.65
2017-04-12T11:16:21.121Z,22.59
2017-04-12T11:17:21.733Z,22.59
2017-04-12T11:18:22.344Z,22.44
2017-04-12T11:19:22.972Z,22.44
2017-04-12T11:20:23.584Z,22.29
2017-04-12T11:21:24.196Z,22.33
2017-04-12T11:22:24.807Z,22.22
2017-04-12T11:23:25.420Z,22.15
2017-04-12T11:24:26.033Z,22.14
2017-04-12T11:25:26.643Z,22.17
2017-04-12T11:26:27.270Z,22.14
2017-04-12T11:27:27.881Z,22.15
2017-04-12T11:28:28.493Z,22.11
2017-04-12T11:29:29.120Z,22.20
2017-04-12T11:30:29.752Z,22.20
2017-04-12T11:31:30.367Z,22.23
2017-04-12T11:32:30.979Z,22.22
2017-04-12T11:33:31.587Z,22.26
2017-04-12T11:34:32.202Z,22.25
2017-04-12T11:35:32.812Z,22.18
2017-04-12T11:36:33.424Z,22.17
2017-04-12T11:37:34.050Z,22.15
2017-04-12T11:38:34.664Z,22.28
2017-04-12T11:39:35.295Z,22.28
2017-04-12T11:40:35.905Z,22.29
2017-04-12T11:41:36.516Z,22.29
2017-04-12T11:42:37.133Z,22.35
2017-04-12T11:43:37.740Z,22.30
2017-04-12T11:44:38.351Z,22.32
2017-04-12T11:45:38.962Z,22.36
2017-04-12T11:46:39.574Z,22.26
2017-04-12T11:47:40.185Z,22.29
2017-04-12T11:48:40.795Z,22.23
2017-04-12T11:49:41.404Z,22.07
2017-04-12T11:50:42.031Z,22.15
2017-04-12T11:51:42.646Z,22.08
2017-04-12T11:52:43.252Z,22.02
2017-04-12T11:53:43.869Z,22.10
2017-04-12T11:54:44.484Z,22.02
2017-04-12T11:55:45.097Z,22.06
2017-04-12T11:56:45.709Z,21.99
2017-04-12T11:57:46.316Z,22.06
2017-04-12T11:58:46.941Z,22.07
2017-04-12T11:59:47.551Z,21.99
2017-04-12T12:00:48.159Z,22.00
2017-04-12T12:01:48.786Z,21.82
2017-04-12T12:02:49.397Z,21.73
2017-04-12T12:03:50.004Z,21.82
2017-04-12T12:04:50.613Z,21.79
2017-04-12T12:05:51.228Z,21.70
2017-04-12T12:06:51.848Z,21.64
2017-04-12T12:07:52.457Z,21.64
2017-04-12T12:08:53.066Z,21.67
2017-04-12T12:09:53.676Z,21.54
2017-04-12T12:10:54.287Z,21.58
2017-04-12T12:11:54.895Z,21.48
2017-04-12T12:12:55.504Z,21.55
2017-04-12T12:13:56.112Z,21.50
2017-04-12T12:14:56.740Z,21.48
2017-04-12T12:15:57.345Z,21.51
2017-04-12T12:16:57.961Z,21.57
2017-04-12T12:17:58.569Z,21.51
2017-04-12T12:18:59.379Z,21.51
2017-04-12T12:20:00.004Z,21.58
2017-04-12T12:21:00.613Z,21.48
2017-04-12T12:22:01.227Z,21.51
2017-04-12T12:23:01.852Z,21.51
2017-04-12T12:24:02.465Z,21.52
2017-04-12T12:25:03.078Z,21.57
2017-04-12T12:26:03.685Z,21.66
2017-04-12T12:27:04.299Z,21.64
2017-04-12T12:28:04.905Z,21.70
2017-04-12T12:29:05.520Z,21.60
2017-04-12T12:30:06.146Z,21.72
2017-04-12T12:31:06.754Z,21.75
2017-04-12T12:32:07.362Z,21.77
2017-04-12T12:33:07.973Z,21.72
2017-04-12T12:34:08.595Z,21.70
2017-04-12T12:35:09.205Z,21.60
2017-04-12T12:36:09.813Z,21.61
2017-04-12T12:37:10.421Z,21.70
2017-04-12T12:38:11.037Z,21.72
2017-04-12T12:39:11.643Z,21.64
2017-04-12T12:40:12.256Z,21.62
2017-04-12T12:41:12.863Z,21.69
2017-04-12T12:42:13.471Z,21.67
2017-04-12T12:43:14.080Z,21.69
2017-04-12T12:44:14.688Z,21.69
2017-04-12T12:45:15.301Z,21.62
2017-04-12T12:46:15.909Z,21.62
2017-04-12T12:47:16.518Z,21.64
2017-04-12T12:48:17.132Z,21.60
2017-04-12T12:49:17.738Z,21.61
2017-04-12T12:50:18.355Z,21.66
2017-04-12T12:51:18.968Z,21.61
2017-04-12T12:52:19.575Z,21.57
2017-04-12T12:53:20.198Z,21.61
2017-04-12T12:54:20.809Z,21.61
2017-04-12T12:55:21.418Z,21.54
2017-04-12T12:56:22.048Z,21.57
2017-04-12T12:57:22.653Z,21.60
2017-04-12T12:58:23.289Z,21.62
2017-04-12T12:59:23.910Z,21.69
2017-04-12T13:00:24.519Z,21.73
2017-04-12T13:01:25.135Z,21.70
2017-04-12T13:02:25.738Z,21.75
2017-04-12T13:03:26.353Z,21.70
2017-04-12T13:04:26.959Z,21.89
2017-04-12T13:05:27.569Z,21.75
2017-04-12T13:06:28.194Z,21.75